Time;durP1;ratioP1;P1;durP2;ratioP2;P2;SDS_P1;SDS_P2;PMS_P1;PMS_P2;Temp;Humidity;BMP_temperature;BMP_pressure;BME280_temperature;BME280_humidity;BME280_pressure;Samples;Min_cycle;Max_cycle;Signal;HPM_P1;HPM_P2
2023/08/28 00:00:30;;;;;;;3.60;1.43;;;;;;;;;;5053505;28;20668;-86
2023/08/28 00:02:58;;;;;;;1.80;1.47;;;;;;;;;;5060231;28;20212;-86
2023/08/28 00:05:26;;;;;;;4.87;1.40;;;;;;;;;;5064063;28;20234;-86
2023/08/28 00:07:53;;;;;;;2.30;1.50;;;;;;;;;;5065964;28;20210;-86
2023/08/28 00:10:21;;;;;;;1.67;1.57;;;;;;;;;;5065841;28;20264;-86
2023/08/28 00:12:48;;;;;;;1.67;1.57;;;;;;;;;;5053234;28;20210;-86
2023/08/28 00:15:15;;;;;;;1.70;1.60;;;;;;;;;;5058811;28;20222;-86
2023/08/28 00:17:42;;;;;;;2.03;1.73;;;;;;;;;;5058388;28;20225;-88
2023/08/28 00:20:09;;;;;;;2.70;1.53;;;;;;;;;;5062940;28;20206;-87
2023/08/28 00:22:38;;;;;;;4.00;1.50;;;;;;;;;;5065334;28;20213;-87
2023/08/28 00:25:06;;;;;;;1.70;1.30;;;;;;;;;;5060200;28;20202;-87
2023/08/28 00:27:34;;;;;;;2.10;1.50;;;;;;;;;;5056667;28;20206;-87
2023/08/28 00:30:01;;;;;;;1.40;1.30;;;;;;;;;;5068596;28;20208;-87
2023/08/28 00:32:28;;;;;;;1.33;1.30;;;;;;;;;;5069168;28;20222;-87
2023/08/28 00:34:55;;;;;;;1.67;1.57;;;;;;;;;;5068847;28;20220;-87
2023/08/28 00:37:23;;;;;;;1.40;1.30;;;;;;;;;;5069894;28;20236;-86
2023/08/28 00:39:51;;;;;;;2.13;1.60;;;;;;;;;;5061709;28;20203;-87
2023/08/28 00:42:18;;;;;;;3.70;1.70;;;;;;;;;;5050855;28;20234;-87
2023/08/28 00:44:45;;;;;;;1.40;1.33;;;;;;;;;;5072403;28;20194;-87
2023/08/28 00:47:13;;;;;;;4.13;1.60;;;;;;;;;;5068275;28;20229;-86
2023/08/28 00:49:41;;;;;;;1.50;1.40;;;;;;;;;;5062306;28;20210;-87
2023/08/28 00:52:09;;;;;;;1.40;1.40;;;;;;;;;;5068384;28;20264;-86
2023/08/28 00:54:36;;;;;;;1.50;1.40;;;;;;;;;;5065948;28;20213;-87
2023/08/28 00:57:05;;;;;;;3.20;1.50;;;;;;;;;;5065470;28;20228;-86
2023/08/28 00:59:32;;;;;;;1.83;1.57;;;;;;;;;;5068686;28;20222;-86
2023/08/28 01:01:59;;;;;;;2.23;1.50;;;;;;;;;;5055911;28;20612;-87
2023/08/28 01:04:26;;;;;;;1.50;1.40;;;;;;;;;;5061011;28;20207;-86
2023/08/28 01:06:56;;;;;;;3.00;1.77;;;;;;;;;;5066235;28;20823;-86
2023/08/28 01:09:26;;;;;;;4.30;1.63;;;;;;;;;;5066186;28;20202;-87
2023/08/28 01:11:57;;;;;;;3.30;1.70;;;;;;;;;;5061041;28;20230;-86
2023/08/28 01:14:27;;;;;;;2.20;1.60;;;;;;;;;;5067136;28;20194;-86
2023/08/28 01:16:55;;;;;;;1.50;1.37;;;;;;;;;;5065048;28;20244;-87
2023/08/28 01:19:28;;;;;;;2.13;1.90;;;;;;;;;;5054407;28;20249;-86
2023/08/28 01:22:00;;;;;;;1.80;1.47;;;;;;;;;;5051482;28;20226;-87
2023/08/28 01:24:28;;;;;;;2.57;1.23;;;;;;;;;;5051190;28;20608;-87
2023/08/28 01:26:56;;;;;;;1.30;1.30;;;;;;;;;;5051482;28;20230;-86
2023/08/28 01:29:23;;;;;;;1.57;1.50;;;;;;;;;;5051797;28;20202;-86
2023/08/28 01:31:50;;;;;;;2.03;1.40;;;;;;;;;;5051289;28;20229;-87
2023/08/28 01:34:17;;;;;;;1.50;1.40;;;;;;;;;;5050070;28;20213;-87
2023/08/28 01:36:47;;;;;;;1.50;1.40;;;;;;;;;;5051420;28;20232;-87
2023/08/28 01:39:22;;;;;;;2.93;1.53;;;;;;;;;;5044065;28;20233;-87
2023/08/28 01:41:50;;;;;;;1.90;1.57;;;;;;;;;;5043206;28;20253;-87
2023/08/28 01:44:19;;;;;;;1.73;1.60;;;;;;;;;;5049175;28;20619;-86
2023/08/28 01:46:46;;;;;;;1.60;1.20;;;;;;;;;;5050039;28;20222;-86
2023/08/28 01:49:13;;;;;;;1.47;1.37;;;;;;;;;;5047117;28;20250;-86
2023/08/28 01:51:41;;;;;;;1.50;1.40;;;;;;;;;;5048019;28;20227;-86
2023/08/28 01:54:08;;;;;;;1.87;1.50;;;;;;;;;;5039884;28;20268;-86
2023/08/28 01:56:35;;;;;;;3.70;1.60;;;;;;;;;;5035787;28;20581;-86
2023/08/28 01:59:03;;;;;;;3.53;1.43;;;;;;;;;;5037010;28;20715;-87
2023/08/28 02:01:31;;;;;;;2.10;1.40;;;;;;;;;;5048318;28;20322;-87
2023/08/28 02:03:58;;;;;;;3.87;1.40;;;;;;;;;;5051487;28;20202;-87
2023/08/28 02:06:25;;;;;;;3.97;1.60;;;;;;;;;;5049025;28;20229;-87
2023/08/28 02:08:52;;;;;;;1.80;1.60;;;;;;;;;;5048045;28;20206;-87
2023/08/28 02:11:19;;;;;;;1.50;1.40;;;;;;;;;;5042665;28;20237;-87
2023/08/28 02:13:46;;;;;;;2.17;1.30;;;;;;;;;;5043430;28;20206;-87
2023/08/28 02:16:13;;;;;;;1.60;1.50;;;;;;;;;;5049885;28;20609;-86
2023/08/28 02:18:42;;;;;;;1.53;1.43;;;;;;;;;;5050205;28;20235;-86
2023/08/28 02:21:09;;;;;;;5.03;1.70;;;;;;;;;;5050466;28;20226;-86
2023/08/28 02:23:36;;;;;;;3.83;1.40;;;;;;;;;;5052897;28;20652;-92
2023/08/28 02:26:03;;;;;;;2.83;1.47;;;;;;;;;;5052606;28;20722;-93
2023/08/28 02:28:30;;;;;;;1.47;1.37;;;;;;;;;;5052978;28;20213;-91
2023/08/28 02:30:59;;;;;;;1.60;1.50;;;;;;;;;;5052857;28;20703;-92
2023/08/28 02:33:26;;;;;;;1.77;1.60;;;;;;;;;;5054132;28;20218;-92
2023/08/28 02:35:55;;;;;;;2.40;1.40;;;;;;;;;;5052435;28;20260;-93
2023/08/28 02:38:22;;;;;;;2.23;1.60;;;;;;;;;;5043338;28;20565;-92
2023/08/28 02:40:49;;;;;;;1.70;1.60;;;;;;;;;;5050778;28;20244;-92
2023/08/28 02:43:16;;;;;;;2.20;1.47;;;;;;;;;;5044729;28;20206;-91
2023/08/28 02:45:43;;;;;;;1.67;1.57;;;;;;;;;;5045509;28;20320;-92
2023/08/28 02:48:10;;;;;;;2.33;1.60;;;;;;;;;;5048259;28;20202;-92
2023/08/28 02:50:37;;;;;;;1.30;1.30;;;;;;;;;;5050953;28;20268;-92
2023/08/28 02:53:06;;;;;;;1.80;1.70;;;;;;;;;;5044537;28;20218;-91
2023/08/28 02:55:40;;;;;;;3.30;1.70;;;;;;;;;;5042416;28;20230;-92
2023/08/28 02:58:07;;;;;;;2.80;2.00;;;;;;;;;;5053068;28;20206;-93
2023/08/28 03:00:41;;;;;;;3.87;1.67;;;;;;;;;;5048859;28;20257;-92
2023/08/28 03:03:08;;;;;;;1.53;1.43;;;;;;;;;;5050925;28;20225;-92
2023/08/28 03:05:35;;;;;;;1.70;1.60;;;;;;;;;;5048524;28;20700;-91
2023/08/28 03:08:02;;;;;;;1.77;1.47;;;;;;;;;;5055976;28;20225;-91
2023/08/28 03:10:34;;;;;;;1.63;1.53;;;;;;;;;;5049161;28;20692;-92
2023/08/28 03:13:02;;;;;;;2.03;1.73;;;;;;;;;;5055469;28;20206;-92
2023/08/28 03:15:29;;;;;;;1.50;1.40;;;;;;;;;;5056502;28;20232;-90
2023/08/28 03:17:56;;;;;;;1.73;1.30;;;;;;;;;;5057190;28;20202;-91
2023/08/28 03:20:23;;;;;;;3.90;1.60;;;;;;;;;;5056485;28;20245;-92
2023/08/28 03:22:50;;;;;;;2.13;1.70;;;;;;;;;;5057682;28;20593;-91
2023/08/28 03:25:17;;;;;;;4.20;2.70;;;;;;;;;;5057017;28;20198;-90
2023/08/28 03:27:45;;;;;;;2.80;1.70;;;;;;;;;;5057161;28;20210;-91
2023/08/28 03:30:13;;;;;;;6.27;1.80;;;;;;;;;;5055350;28;20680;-90
2023/08/28 03:32:41;;;;;;;2.30;1.80;;;;;;;;;;5055707;28;20703;-90
2023/08/28 03:35:08;;;;;;;3.23;1.97;;;;;;;;;;5055673;28;20206;-90
2023/08/28 03:37:35;;;;;;;2.10;1.90;;;;;;;;;;5055635;28;20571;-91
2023/08/28 03:40:03;;;;;;;3.43;1.70;;;;;;;;;;5055158;28;20222;-89
2023/08/28 03:42:32;;;;;;;2.70;1.80;;;;;;;;;;5052308;28;20229;-90
2023/08/28 03:45:01;;;;;;;2.13;1.73;;;;;;;;;;5055531;28;20194;-90
2023/08/28 03:47:30;;;;;;;1.60;1.50;;;;;;;;;;5055170;28;20245;-90
2023/08/28 03:49:57;;;;;;;1.80;1.70;;;;;;;;;;5055414;28;20190;-90
2023/08/28 03:52:24;;;;;;;1.63;1.53;;;;;;;;;;5054874;28;20621;-90
2023/08/28 03:54:51;;;;;;;1.60;1.50;;;;;;;;;;5047513;28;20209;-89
2023/08/28 03:57:18;;;;;;;6.07;1.83;;;;;;;;;;5055928;28;20573;-90
2023/08/28 03:59:45;;;;;;;1.80;1.70;;;;;;;;;;5055743;28;20322;-90
2023/08/28 04:02:13;;;;;;;1.63;1.53;;;;;;;;;;5054824;28;20837;-90
2023/08/28 04:04:41;;;;;;;1.70;1.60;;;;;;;;;;5055113;28;20213;-90
2023/08/28 04:07:09;;;;;;;1.60;1.50;;;;;;;;;;5054875;28;20287;-91
2023/08/28 04:09:36;;;;;;;2.20;1.50;;;;;;;;;;5060406;28;20206;-95
2023/08/28 04:12:03;;;;;;;7.43;1.97;;;;;;;;;;5056669;28;20560;-92
2023/08/28 04:14:30;;;;;;;3.47;1.60;;;;;;;;;;5048778;28;20210;-92
2023/08/28 04:16:57;;;;;;;2.30;1.80;;;;;;;;;;5037842;28;20296;-91
2023/08/28 04:19:25;;;;;;;1.80;1.70;;;;;;;;;;5042161;28;20214;-92
2023/08/28 04:21:52;;;;;;;3.30;1.83;;;;;;;;;;5037457;28;20257;-91
2023/08/28 04:24:19;;;;;;;1.63;1.53;;;;;;;;;;5053625;28;20212;-90
2023/08/28 04:26:47;;;;;;;6.47;1.80;;;;;;;;;;5057590;28;20237;-92
2023/08/28 04:29:14;;;;;;;4.47;1.90;;;;;;;;;;5058526;28;20707;-87
2023/08/28 04:31:41;;;;;;;2.47;1.90;;;;;;;;;;5053407;28;20234;-87
2023/08/28 04:34:08;;;;;;;2.50;1.70;;;;;;;;;;5053385;28;20198;-88
2023/08/28 04:36:36;;;;;;;2.20;1.77;;;;;;;;;;5054812;28;20577;-88
2023/08/28 04:39:03;;;;;;;1.83;1.70;;;;;;;;;;5053440;28;20226;-88
2023/08/28 04:41:31;;;;;;;2.57;1.90;;;;;;;;;;5050997;28;20230;-88
2023/08/28 04:43:58;;;;;;;2.37;2.10;;;;;;;;;;5052425;28;20202;-88
2023/08/28 04:46:26;;;;;;;3.27;2.13;;;;;;;;;;5052828;28;20225;-88
2023/08/28 04:48:53;;;;;;;2.60;1.90;;;;;;;;;;5053262;28;20202;-88
2023/08/28 04:51:20;;;;;;;2.07;1.87;;;;;;;;;;5052785;28;20238;-88
2023/08/28 04:53:48;;;;;;;3.10;2.10;;;;;;;;;;5053333;28;20202;-87
2023/08/28 04:56:16;;;;;;;3.80;1.90;;;;;;;;;;5052907;28;20236;-88
2023/08/28 04:58:43;;;;;;;1.83;1.73;;;;;;;;;;5053144;28;20679;-88
2023/08/28 05:01:10;;;;;;;2.20;2.00;;;;;;;;;;5048860;28;20226;-89
2023/08/28 05:03:37;;;;;;;2.60;1.97;;;;;;;;;;5054134;28;20190;-90
2023/08/28 05:06:05;;;;;;;3.03;1.80;;;;;;;;;;5053597;28;20222;-89
2023/08/28 05:08:32;;;;;;;2.20;2.00;;;;;;;;;;5054399;28;20224;-89
2023/08/28 05:11:03;;;;;;;2.00;1.90;;;;;;;;;;5052470;28;20236;-89
2023/08/28 05:13:30;;;;;;;4.03;2.03;;;;;;;;;;5053355;28;20260;-88
2023/08/28 05:15:57;;;;;;;2.67;2.00;;;;;;;;;;5036372;28;20221;-88
2023/08/28 05:18:25;;;;;;;2.17;1.90;;;;;;;;;;5053143;28;20206;-88
2023/08/28 05:20:52;;;;;;;3.17;1.90;;;;;;;;;;5052445;28;20241;-88
2023/08/28 05:23:25;;;;;;;2.00;1.80;;;;;;;;;;5053035;28;20206;-89
2023/08/28 05:25:52;;;;;;;2.07;1.97;;;;;;;;;;5052590;28;20734;-88
2023/08/28 05:28:20;;;;;;;2.30;1.90;;;;;;;;;;5053254;28;20576;-89
2023/08/28 05:30:47;;;;;;;2.50;1.73;;;;;;;;;;5051403;28;20238;-88
2023/08/28 05:33:14;;;;;;;2.20;2.00;;;;;;;;;;5052306;28;20206;-89
2023/08/28 05:35:42;;;;;;;2.13;1.93;;;;;;;;;;5052683;28;20601;-89
2023/08/28 05:38:09;;;;;;;2.00;1.90;;;;;;;;;;5053311;28;20206;-89
2023/08/28 05:40:37;;;;;;;2.20;2.00;;;;;;;;;;5052475;28;20237;-90
2023/08/28 05:43:04;;;;;;;2.17;1.90;;;;;;;;;;5053537;28;20202;-90
2023/08/28 05:45:33;;;;;;;5.10;2.00;;;;;;;;;;5052955;28;20234;-90
2023/08/28 05:48:00;;;;;;;5.93;2.23;;;;;;;;;;5045056;28;20206;-89
2023/08/28 05:50:27;;;;;;;2.20;2.00;;;;;;;;;;5052831;28;20233;-89
2023/08/28 05:52:54;;;;;;;3.00;1.90;;;;;;;;;;5053376;28;20226;-90
2023/08/28 05:55:21;;;;;;;4.00;2.10;;;;;;;;;;5052510;28;20691;-89
2023/08/28 05:57:48;;;;;;;3.00;2.20;;;;;;;;;;5053410;28;20217;-90
2023/08/28 06:00:16;;;;;;;2.00;1.90;;;;;;;;;;5052497;28;20221;-89
2023/08/28 06:02:44;;;;;;;2.63;2.43;;;;;;;;;;5053284;28;20217;-90
2023/08/28 06:05:11;;;;;;;2.57;2.37;;;;;;;;;;5052298;28;20206;-89
2023/08/28 06:07:39;;;;;;;2.43;2.23;;;;;;;;;;5053148;28;20201;-89
2023/08/28 06:10:07;;;;;;;2.27;2.17;;;;;;;;;;5052912;28;20206;-88
2023/08/28 06:12:34;;;;;;;2.07;1.97;;;;;;;;;;5059336;28;20229;-88
2023/08/28 06:15:01;;;;;;;3.50;2.20;;;;;;;;;;5052039;28;20205;-87
2023/08/28 06:17:29;;;;;;;3.40;2.37;;;;;;;;;;5057369;28;20591;-87
2023/08/28 06:19:57;;;;;;;2.10;2.00;;;;;;;;;;5051947;28;20588;-88
2023/08/28 06:22:24;;;;;;;2.43;2.30;;;;;;;;;;5051045;28;20226;-87
2023/08/28 06:24:52;;;;;;;2.50;2.30;;;;;;;;;;5051776;28;20229;-88
2023/08/28 06:27:19;;;;;;;4.47;2.47;;;;;;;;;;5051484;28;20487;-88
2023/08/28 06:29:46;;;;;;;7.40;2.10;;;;;;;;;;5051594;28;20206;-88
2023/08/28 06:32:14;;;;;;;5.77;2.10;;;;;;;;;;5049056;28;20229;-88
2023/08/28 06:34:41;;;;;;;2.20;2.10;;;;;;;;;;5050159;28;20694;-88
2023/08/28 06:37:10;;;;;;;2.57;2.20;;;;;;;;;;5051062;28;20711;-88
2023/08/28 06:39:37;;;;;;;3.17;2.20;;;;;;;;;;5051683;28;20241;-88
2023/08/28 06:42:04;;;;;;;3.07;2.40;;;;;;;;;;5054166;28;20233;-88
2023/08/28 06:44:31;;;;;;;3.40;2.17;;;;;;;;;;5055378;28;20209;-88
2023/08/28 06:46:58;;;;;;;2.97;2.33;;;;;;;;;;5054553;28;20324;-87
2023/08/28 06:49:25;;;;;;;2.37;2.17;;;;;;;;;;5055079;28;20214;-87
2023/08/28 06:51:52;;;;;;;2.70;2.37;;;;;;;;;;5054394;28;20245;-88
2023/08/28 06:54:21;;;;;;;2.70;2.50;;;;;;;;;;5055490;28;20198;-90
2023/08/28 06:56:48;;;;;;;3.20;2.27;;;;;;;;;;5056945;28;20240;-87
2023/08/28 06:59:15;;;;;;;2.40;2.20;;;;;;;;;;5055321;28;20206;-88
2023/08/28 07:01:43;;;;;;;2.70;2.20;;;;;;;;;;5054246;28;20324;-87
2023/08/28 07:04:10;;;;;;;2.40;2.20;;;;;;;;;;5052311;28;20222;-87
2023/08/28 07:06:37;;;;;;;3.73;2.40;;;;;;;;;;5054267;28;20240;-89
2023/08/28 07:09:05;;;;;;;2.70;2.37;;;;;;;;;;5054358;28;20209;-88
2023/08/28 07:11:33;;;;;;;6.50;2.70;;;;;;;;;;5046155;28;20258;-89
2023/08/28 07:14:01;;;;;;;5.80;2.60;;;;;;;;;;5042767;28;20645;-89
2023/08/28 07:16:29;;;;;;;5.10;2.60;;;;;;;;;;5044887;28;20719;-89
2023/08/28 07:18:56;;;;;;;5.50;2.57;;;;;;;;;;5053885;28;20221;-89
2023/08/28 07:21:23;;;;;;;4.90;2.50;;;;;;;;;;5047328;28;20254;-89
2023/08/28 07:23:51;;;;;;;4.03;2.47;;;;;;;;;;5055818;28;20201;-88
2023/08/28 07:26:18;;;;;;;3.20;2.60;;;;;;;;;;5038215;28;20247;-87
2023/08/28 07:28:48;;;;;;;3.47;2.47;;;;;;;;;;5053480;28;20230;-87
2023/08/28 07:31:15;;;;;;;4.00;2.50;;;;;;;;;;5055583;28;20595;-87
2023/08/28 07:33:43;;;;;;;2.63;2.43;;;;;;;;;;5048358;28;20206;-88
2023/08/28 07:36:10;;;;;;;3.63;2.70;;;;;;;;;;5059565;28;20226;-89
2023/08/28 07:38:37;;;;;;;6.93;2.80;;;;;;;;;;5066611;28;20233;-91
2023/08/28 07:41:04;;;;;;;4.63;2.53;;;;;;;;;;5059098;28;20226;-91
2023/08/28 07:43:31;;;;;;;2.93;2.70;;;;;;;;;;5055800;28;20283;-91
2023/08/28 07:46:00;;;;;;;3.47;2.60;;;;;;;;;;5044286;28;20739;-92
2023/08/28 07:48:27;;;;;;;3.00;2.80;;;;;;;;;;5050769;28;20206;-93
2023/08/28 07:50:54;;;;;;;4.17;2.70;;;;;;;;;;5042987;28;20241;-89
2023/08/28 07:53:21;;;;;;;4.27;2.73;;;;;;;;;;5046500;28;20206;-89
2023/08/28 07:55:48;;;;;;;4.40;2.87;;;;;;;;;;5051273;28;20234;-89
2023/08/28 07:58:15;;;;;;;4.67;2.67;;;;;;;;;;5047071;28;20209;-89
2023/08/28 08:00:43;;;;;;;2.67;2.47;;;;;;;;;;5054309;28;20284;-89
2023/08/28 08:03:11;;;;;;;3.03;2.70;;;;;;;;;;5046307;28;20209;-93
2023/08/28 08:05:38;;;;;;;2.50;2.30;;;;;;;;;;5057833;28;20316;-92
2023/08/28 08:08:06;;;;;;;3.03;2.80;;;;;;;;;;5038323;28;20207;-92
2023/08/28 08:10:33;;;;;;;2.70;2.43;;;;;;;;;;5036497;28;20234;-89
2023/08/28 08:13:00;;;;;;;4.00;2.87;;;;;;;;;;5046288;28;20198;-89
2023/08/28 08:15:27;;;;;;;2.90;2.70;;;;;;;;;;5052840;28;20242;-88
2023/08/28 08:17:54;;;;;;;2.73;2.53;;;;;;;;;;5055653;28;20591;-88
2023/08/28 08:20:23;;;;;;;4.37;3.03;;;;;;;;;;5047608;28;20245;-88
2023/08/28 08:22:50;;;;;;;4.70;2.97;;;;;;;;;;5074273;23;20695;-88
2023/08/28 08:25:17;;;;;;;4.07;2.90;;;;;;;;;;5054904;28;20206;-88
2023/08/28 08:27:45;;;;;;;3.00;2.70;;;;;;;;;;5069410;28;20209;-87
2023/08/28 08:30:14;;;;;;;4.87;2.70;;;;;;;;;;5065625;28;20209;-89
2023/08/28 08:32:43;;;;;;;3.13;2.83;;;;;;;;;;5057492;28;20245;-89
2023/08/28 08:35:12;;;;;;;5.43;2.80;;;;;;;;;;5053507;28;20203;-87
2023/08/28 08:37:40;;;;;;;4.30;3.20;;;;;;;;;;5061464;28;20210;-88
2023/08/28 08:40:13;;;;;;;3.60;2.67;;;;;;;;;;5067434;28;20214;-87
2023/08/28 08:42:40;;;;;;;6.07;3.07;;;;;;;;;;5077130;28;20217;-87
2023/08/28 08:45:08;;;;;;;3.53;2.90;;;;;;;;;;5075764;28;20232;-88
2023/08/28 08:47:35;;;;;;;5.47;2.77;;;;;;;;;;5074308;28;20193;-89
2023/08/28 08:50:04;;;;;;;4.60;2.77;;;;;;;;;;5071391;28;20201;-89
2023/08/28 08:52:32;;;;;;;3.20;2.90;;;;;;;;;;5077843;28;20240;-89
2023/08/28 08:55:05;;;;;;;4.77;3.23;;;;;;;;;;5075022;28;20194;-89
2023/08/28 08:57:36;;;;;;;4.43;2.80;;;;;;;;;;5051975;28;20253;-89
2023/08/28 09:00:07;;;;;;;4.60;2.70;;;;;;;;;;5049957;28;20309;-89
2023/08/28 09:02:35;;;;;;;3.47;3.17;;;;;;;;;;5051837;28;20739;-89
2023/08/28 09:05:03;;;;;;;3.50;3.20;;;;;;;;;;5051640;28;20582;-90
2023/08/28 09:07:31;;;;;;;2.73;2.50;;;;;;;;;;5051115;28;20309;-89
2023/08/28 09:09:58;;;;;;;3.00;2.80;;;;;;;;;;5051021;28;20214;-89
2023/08/28 09:12:27;;;;;;;3.30;3.00;;;;;;;;;;5050601;28;20230;-89
2023/08/28 09:14:54;;;;;;;3.70;3.00;;;;;;;;;;5060877;28;20217;-89
2023/08/28 09:17:21;;;;;;;3.00;2.80;;;;;;;;;;5062697;28;20237;-88
2023/08/28 09:19:49;;;;;;;4.00;3.43;;;;;;;;;;5051843;28;20582;-89
2023/08/28 09:22:16;;;;;;;6.07;3.27;;;;;;;;;;5050690;28;20246;-88
2023/08/28 09:24:43;;;;;;;3.97;2.50;;;;;;;;;;5051241;28;20213;-88
2023/08/28 09:27:13;;;;;;;6.43;3.47;;;;;;;;;;5050881;28;20249;-89
2023/08/28 09:29:42;;;;;;;6.13;3.53;;;;;;;;;;5058669;28;20259;-88
2023/08/28 09:32:09;;;;;;;4.13;3.57;;;;;;;;;;5053564;28;20256;-89
2023/08/28 09:34:38;;;;;;;4.00;3.10;;;;;;;;;;5051197;28;20204;-88
2023/08/28 09:37:05;;;;;;;3.17;2.87;;;;;;;;;;5051609;28;20237;-88
2023/08/28 09:39:33;;;;;;;4.20;3.10;;;;;;;;;;5057042;28;20202;-88
2023/08/28 09:42:00;;;;;;;6.30;3.27;;;;;;;;;;5059529;28;20233;-88
2023/08/28 09:44:27;;;;;;;4.97;3.33;;;;;;;;;;5052820;28;20216;-88
2023/08/28 09:46:57;;;;;;;3.73;3.07;;;;;;;;;;5050527;28;20229;-88
2023/08/28 09:49:26;;;;;;;6.03;3.40;;;;;;;;;;5051809;28;20259;-88
2023/08/28 09:51:53;;;;;;;4.53;3.00;;;;;;;;;;5053114;28;20611;-88
2023/08/28 09:54:24;;;;;;;3.50;3.20;;;;;;;;;;5051043;28;20659;-88
2023/08/28 09:56:52;;;;;;;4.53;3.20;;;;;;;;;;5058338;28;20230;-88
2023/08/28 09:59:19;;;;;;;4.20;3.60;;;;;;;;;;5055804;28;20219;-89
2023/08/28 10:01:48;;;;;;;5.45;3.25;;;;;;;;;;5070554;28;20405;-88
2023/08/28 10:04:20;;;;;;;3.90;3.43;;;;;;;;;;5054506;28;20644;-88
2023/08/28 10:06:49;;;;;;;3.83;3.00;;;;;;;;;;5054146;28;20279;-88
2023/08/28 10:09:18;;;;;;;5.32;3.40;;;;;;;;;;5059632;28;20225;-88
2023/08/28 10:11:46;;;;;;;4.30;3.53;;;;;;;;;;5067056;28;20275;-88
2023/08/28 10:14:14;;;;;;;3.33;3.03;;;;;;;;;;5046436;28;20201;-88
2023/08/28 10:16:43;;;;;;;4.27;3.50;;;;;;;;;;5054513;28;20230;-88
2023/08/28 10:19:18;;;;;;;4.65;3.10;;;;;;;;;;5062486;28;20209;-88
2023/08/28 10:21:48;;;;;;;5.28;4.03;;;;;;;;;;5062594;28;20679;-88
2023/08/28 10:24:19;;;;;;;3.33;3.10;;;;;;;;;;5051188;28;20202;-88
2023/08/28 10:26:48;;;;;;;6.15;3.90;;;;;;;;;;5049710;28;20233;-88
2023/08/28 10:29:17;;;;;;;4.28;3.50;;;;;;;;;;5055656;28;20244;-88
2023/08/28 10:31:44;;;;;;;4.72;3.20;;;;;;;;;;5054175;28;20733;-88
2023/08/28 10:34:32;;;;;;;5.07;3.47;;;;;;;;;;5054425;28;20201;-88
2023/08/28 10:37:03;;;;;;;7.43;3.75;;;;;;;;;;5053808;28;20233;-88
2023/08/28 10:39:32;;;;;;;7.72;3.20;;;;;;;;;;5055877;28;20202;-88
2023/08/28 10:42:00;;;;;;;3.67;3.15;;;;;;;;;;5050278;28;20258;-88
2023/08/28 10:44:27;;;;;;;4.35;3.70;;;;;;;;;;5050119;28;20246;-88
2023/08/28 10:46:55;;;;;;;3.72;3.42;;;;;;;;;;5049919;28;20313;-88
2023/08/28 10:49:22;;;;;;;3.30;3.05;;;;;;;;;;5067332;28;20264;-88
2023/08/28 10:52:01;;;;;;;2.88;2.55;;;;;;;;;;5051233;28;20472;-88
2023/08/28 10:54:36;;;;;;;3.30;3.00;;;;;;;;;;5056972;28;20202;-88
2023/08/28 10:57:05;;;;;;;3.15;2.60;;;;;;;;;;5052797;28;20259;-87
2023/08/28 10:59:42;;;;;;;3.20;2.50;;;;;;;;;;5071974;28;20202;-88
2023/08/28 11:02:10;;;;;;;3.83;2.70;;;;;;;;;;5053231;28;20421;-88
2023/08/28 11:04:38;;;;;;;2.67;2.47;;;;;;;;;;5058516;28;20210;-89
2023/08/28 11:07:06;;;;;;;2.67;2.47;;;;;;;;;;5051276;28;20648;-88
2023/08/28 11:09:41;;;;;;;3.20;2.90;;;;;;;;;;5055788;28;20210;-89
2023/08/28 11:12:26;;;;;;;5.63;2.78;;;;;;;;;;5048948;28;20236;-89
2023/08/28 11:15:00;;;;;;;2.35;2.17;;;;;;;;;;5048377;28;20292;-88
2023/08/28 11:17:27;;;;;;;2.28;2.17;;;;;;;;;;5050364;28;20230;-88
2023/08/28 11:20:05;;;;;;;2.38;2.10;;;;;;;;;;5052623;28;20209;-87
2023/08/28 11:22:32;;;;;;;3.53;1.90;;;;;;;;;;5051978;28;20225;-89
2023/08/28 11:25:01;;;;;;;1.90;1.80;;;;;;;;;;5052921;28;20214;-89
2023/08/28 11:27:44;;;;;;;3.20;2.20;;;;;;;;;;5052906;28;20240;-88
2023/08/28 11:30:12;;;;;;;4.50;1.98;;;;;;;;;;5050717;28;20236;-88
2023/08/28 11:32:40;;;;;;;2.88;1.70;;;;;;;;;;5049770;28;20309;-87
2023/08/28 11:35:09;;;;;;;2.47;1.50;;;;;;;;;;5053584;28;20222;-88
2023/08/28 11:37:37;;;;;;;2.70;1.50;;;;;;;;;;5053945;28;20206;-87
2023/08/28 11:40:07;;;;;;;1.48;1.38;;;;;;;;;;5053667;28;20210;-87
2023/08/28 11:42:35;;;;;;;1.35;1.25;;;;;;;;;;5053794;28;20230;-87
2023/08/28 11:45:03;;;;;;;1.85;1.50;;;;;;;;;;5062468;28;20217;-88
2023/08/28 11:47:32;;;;;;;3.28;1.50;;;;;;;;;;5053916;28;20202;-88
2023/08/28 11:49:59;;;;;;;1.88;1.60;;;;;;;;;;5054845;28;20214;-87
2023/08/28 11:52:27;;;;;;;1.58;1.48;;;;;;;;;;5053489;28;20249;-87
2023/08/28 11:55:00;;;;;;;1.98;1.40;;;;;;;;;;5064782;28;20679;-87
2023/08/28 11:57:30;;;;;;;1.73;1.38;;;;;;;;;;5062482;28;20245;-87
2023/08/28 11:59:57;;;;;;;1.58;1.38;;;;;;;;;;5059977;28;20213;-87
2023/08/28 12:02:25;;;;;;;1.50;1.40;;;;;;;;;;5055546;28;21403;-90
2023/08/28 12:04:52;;;;;;;1.77;1.50;;;;;;;;;;5067432;28;20201;-83
2023/08/28 12:07:22;;;;;;;2.25;1.63;;;;;;;;;;5048263;28;20233;-85
2023/08/28 12:09:50;;;;;;;1.95;1.85;;;;;;;;;;5060855;28;20210;-84
2023/08/28 12:12:17;;;;;;;2.63;1.50;;;;;;;;;;5057898;28;20230;-85
2023/08/28 12:14:46;;;;;;;1.40;1.30;;;;;;;;;;5051960;28;20293;-86
2023/08/28 12:17:14;;;;;;;1.73;1.63;;;;;;;;;;5048978;28;20367;-85
2023/08/28 12:19:41;;;;;;;1.60;1.50;;;;;;;;;;5052676;28;20202;-86
2023/08/28 12:22:10;;;;;;;1.63;1.52;;;;;;;;;;5047549;28;20694;-86
2023/08/28 12:24:40;;;;;;;1.80;1.60;;;;;;;;;;5050687;28;20270;-86
2023/08/28 12:27:07;;;;;;;2.78;1.90;;;;;;;;;;5046991;28;20273;-85
2023/08/28 12:29:35;;;;;;;1.58;1.42;;;;;;;;;;5044700;28;20293;-85
2023/08/28 12:32:06;;;;;;;2.85;1.90;;;;;;;;;;5043298;28;20226;-85
2023/08/28 12:34:33;;;;;;;1.40;1.23;;;;;;;;;;5044489;28;20759;-85
2023/08/28 12:37:05;;;;;;;2.80;1.48;;;;;;;;;;5048585;28;20313;-85
2023/08/28 12:39:32;;;;;;;3.25;1.65;;;;;;;;;;5046822;28;20230;-85
2023/08/28 12:41:59;;;;;;;1.60;1.50;;;;;;;;;;5047326;28;20223;-86
2023/08/28 12:44:28;;;;;;;1.77;1.33;;;;;;;;;;5056626;28;20755;-85
2023/08/28 12:46:55;;;;;;;1.40;1.30;;;;;;;;;;5059194;28;20291;-85
2023/08/28 12:49:23;;;;;;;1.67;0.93;;;;;;;;;;5046040;28;20211;-85
2023/08/28 12:51:51;;;;;;;1.42;1.33;;;;;;;;;;5054498;28;20236;-85
2023/08/28 12:54:19;;;;;;;1.25;1.10;;;;;;;;;;5052148;28;20206;-85
2023/08/28 12:56:47;;;;;;;1.38;1.27;;;;;;;;;;5056471;28;20229;-85
2023/08/28 12:59:14;;;;;;;2.05;1.17;;;;;;;;;;5061064;28;20259;-85
2023/08/28 13:01:41;;;;;;;3.97;1.60;;;;;;;;;;5057486;28;20256;-85
2023/08/28 13:04:09;;;;;;;1.40;1.30;;;;;;;;;;5052358;28;20206;-84
2023/08/28 13:06:38;;;;;;;1.10;1.10;;;;;;;;;;5051765;28;20234;-85
2023/08/28 13:09:07;;;;;;;1.33;1.23;;;;;;;;;;5053370;28;20260;-86
2023/08/28 13:11:34;;;;;;;1.10;1.10;;;;;;;;;;5052701;28;20225;-85
2023/08/28 13:14:02;;;;;;;1.67;1.10;;;;;;;;;;5051869;28;20206;-85
2023/08/28 13:16:30;;;;;;;1.70;1.60;;;;;;;;;;5051377;28;20228;-86
2023/08/28 13:18:57;;;;;;;2.42;1.27;;;;;;;;;;5045232;28;20213;-85
2023/08/28 13:21:24;;;;;;;2.83;1.83;;;;;;;;;;5042193;28;20237;-85
2023/08/28 13:23:53;;;;;;;1.65;1.55;;;;;;;;;;5049856;28;20229;-85
2023/08/28 13:26:20;;;;;;;1.50;1.40;;;;;;;;;;5058098;28;20234;-85
2023/08/28 13:28:47;;;;;;;1.10;1.10;;;;;;;;;;5050375;28;20651;-85
2023/08/28 13:31:14;;;;;;;1.20;1.20;;;;;;;;;;5050116;28;20719;-85
2023/08/28 13:33:41;;;;;;;1.65;1.20;;;;;;;;;;5064362;28;20233;-85
2023/08/28 13:36:09;;;;;;;1.20;1.20;;;;;;;;;;5069853;28;20610;-85
2023/08/28 13:38:36;;;;;;;1.67;1.33;;;;;;;;;;5061809;28;20627;-85
2023/08/28 13:41:06;;;;;;;1.60;1.50;;;;;;;;;;5046378;28;20679;-85
2023/08/28 13:43:33;;;;;;;3.13;2.00;;;;;;;;;;5063415;28;20638;-85
2023/08/28 13:46:00;;;;;;;2.58;1.30;;;;;;;;;;5061474;28;20237;-85
2023/08/28 13:48:29;;;;;;;1.55;1.45;;;;;;;;;;5054432;28;20798;-85
2023/08/28 13:50:56;;;;;;;1.40;1.30;;;;;;;;;;5069279;28;20233;-85
2023/08/28 13:53:23;;;;;;;1.67;1.58;;;;;;;;;;5068454;28;20232;-85
2023/08/28 13:55:50;;;;;;;1.77;1.67;;;;;;;;;;5054767;28;20249;-85
2023/08/28 13:58:21;;;;;;;1.10;1.10;;;;;;;;;;5059888;28;20206;-85
2023/08/28 14:00:49;;;;;;;1.98;1.40;;;;;;;;;;5044761;28;20575;-85
2023/08/28 14:03:16;;;;;;;1.85;1.52;;;;;;;;;;5049699;28;20896;-85
2023/08/28 14:05:43;;;;;;;1.10;1.10;;;;;;;;;;5049120;28;20638;-85
2023/08/28 14:08:10;;;;;;;1.27;1.23;;;;;;;;;;5049691;28;20696;-85
2023/08/28 14:10:38;;;;;;;1.67;1.40;;;;;;;;;;5051241;28;20803;-85
2023/08/28 14:13:05;;;;;;;1.58;1.48;;;;;;;;;;5058027;28;20236;-85
2023/08/28 14:15:33;;;;;;;1.20;1.20;;;;;;;;;;5046575;28;20638;-85
2023/08/28 14:18:01;;;;;;;2.03;1.20;;;;;;;;;;5053870;28;20205;-85
2023/08/28 14:20:28;;;;;;;1.30;1.20;;;;;;;;;;5051623;28;20256;-88
2023/08/28 14:22:55;;;;;;;1.80;1.20;;;;;;;;;;5058299;22;20226;-80
2023/08/28 14:25:22;;;;;;;1.45;1.17;;;;;;;;;;5027624;28;20616;-83
2023/08/28 14:27:51;;;;;;;1.00;1.00;;;;;;;;;;5045245;28;20283;-83
2023/08/28 14:30:18;;;;;;;1.38;1.27;;;;;;;;;;5044127;28;20224;-82
2023/08/28 14:32:48;;;;;;;1.90;1.50;;;;;;;;;;5026239;28;20231;-77
2023/08/28 14:35:16;;;;;;;1.60;1.50;;;;;;;;;;5006485;28;20223;-79
2023/08/28 14:37:43;;;;;;;1.08;1.08;;;;;;;;;;5010102;28;20211;-84
2023/08/28 14:40:11;;;;;;;0.95;0.95;;;;;;;;;;5014582;28;20899;-82
2023/08/28 14:42:38;;;;;;;1.50;1.40;;;;;;;;;;5029684;28;20238;-82
2023/08/28 14:45:05;;;;;;;1.38;1.05;;;;;;;;;;5021223;28;20219;-82
2023/08/28 14:47:33;;;;;;;1.00;1.00;;;;;;;;;;5021871;28;20215;-83